Hlavní strana
METAR-TAF:

METAR-TAF

Letiště :

Letiště Mnichov

Mnichov, Německo

zeměpisná šířka: 48-21N, zeměpisná délka: 011-47E, výška: 453 m

Aktuální stav počasí

Zpráva byla vytvořena před 15 minutami, v 15:50 UTC
Severoseverovýchodní vítr 4 kt
Teplota 2°C
Vlhkost vzduchu 93%
Tlak 1022 hPa
Viditelnost 10 km a více
mlha v blízkosti

METAR: EDDM 181550Z 03004KT 9999 VCFG NSC 02/01 Q1022 TEMPO FM1700 3000 BR BKN008

Čas: 17:05 (16:05 UTC)

Předpověď počasí

Zpráva byla vytvořena před 5 hodinami a 5 minutami, v 11:00 UTC
Předpověď platná od 18 v 12 UTC do 19 v 18 UTC
Východní vítr 5 kt
Viditelnost 10 km a více
Žádná oblačnost pod 1500 m, nevyskytují se cumulonimby.
Změna
od 18 v 21 UTC do 18 v 24 UTC
Viditelnost: 3000 m
chuchvalce mlhy
Pravděpodobnost 30% :
Dočasný
od 19 v 03 UTC do 19 v 07 UTC
Viditelnost: 1200 m
Změna
od 19 v 08 UTC do 19 v 11 UTC
Viditelnost 10 km a více

TAF: EDDM 181100Z 1812/1918 10005KT CAVOK BECMG 1821/1824 3000 BCFG PROB30 TEMPO 1903/1907 1200 BECMG 1908/1911 9999

Stav a předpovědi počasí z více než 4 000 letišť (zprávy METAR a TAF).

Červené a žluté tečky na mapě představují dostupné meteorologické stanice.

Když kurzor umístíte na tečku, zobrazí se název stanice.

Pak kliknutím zobrazíte stav a předpověď počasí.

Chcete-li změnit mapu, kliknutím na zelené tlačítko se znaménkem +mapu přiblížíte, kliknutím na zelené tlačítko se znaménkem – mapu oddálíte a kliknutím na zelené šipky přejdete na sousední mapy.


METAR-TAF: